Time;durP1;ratioP1;P1;durP2;ratioP2;P2;SDS_P1;SDS_P2;PMS_P1;PMS_P2;Temp;Humidity;BMP_temperature;BMP_pressure;BME280_temperature;BME280_humidity;BME280_pressure;Samples;Min_cycle;Max_cycle;Signal;HPM_P1;HPM_P2
2021/05/16 00:01:09;;;;;;;5.13;3.00;;;10.50;99.90;;;;;;5036215;28;20302;-72
2021/05/16 00:03:35;;;;;;;2.97;2.67;;;10.40;99.90;;;;;;5022688;28;20464;-73
2021/05/16 00:06:01;;;;;;;3.67;2.60;;;10.40;99.90;;;;;;5049356;28;20451;-73
2021/05/16 00:08:27;;;;;;;4.23;2.93;;;10.40;99.90;;;;;;5059249;28;20464;-73
2021/05/16 00:10:53;;;;;;;3.90;2.93;;;10.40;99.90;;;;;;5017829;28;20804;-72
2021/05/16 00:13:19;;;;;;;5.27;3.57;;;10.50;99.90;;;;;;5075880;28;20227;-73
2021/05/16 00:15:45;;;;;;;8.33;3.80;;;10.60;99.90;;;;;;5076730;28;20450;-73
2021/05/16 00:18:11;;;;;;;5.70;2.50;;;10.60;99.90;;;;;;5043990;28;20215;-73
2021/05/16 00:20:36;;;;;;;3.37;2.60;;;10.70;99.90;;;;;;5058353;28;20738;-71
2021/05/16 00:23:03;;;;;;;4.13;2.80;;;10.80;99.90;;;;;;5069025;28;20242;-73
2021/05/16 00:25:30;;;;;;;2.73;2.23;;;10.80;99.90;;;;;;5047778;28;20658;-72
2021/05/16 00:27:56;;;;;;;6.20;2.70;;;10.80;99.90;;;;;;5050853;28;20544;-74
2021/05/16 00:30:27;;;;;;;3.37;2.90;;;10.80;99.90;;;;;;5066687;28;20598;-73
2021/05/16 00:32:57;;;;;;;2.20;2.00;;;10.80;99.90;;;;;;5039861;28;20230;-74
2021/05/16 00:35:26;;;;;;;3.37;2.20;;;10.90;99.90;;;;;;5021093;28;20458;-73
2021/05/16 00:37:53;;;;;;;5.50;2.57;;;10.90;99.90;;;;;;5065689;28;20523;-73
2021/05/16 00:40:19;;;;;;;2.90;2.67;;;10.80;99.90;;;;;;5036228;28;20465;-73
2021/05/16 00:42:45;;;;;;;3.80;2.73;;;10.90;99.90;;;;;;5042876;28;20815;-73
2021/05/16 00:45:24;;;;;;;13.03;2.77;;;10.90;99.90;;;;;;5048515;28;20467;-73
2021/05/16 00:47:56;;;;;;;3.00;2.10;;;10.90;99.90;;;;;;5066439;28;20223;-73
2021/05/16 00:50:25;;;;;;;3.57;2.63;;;10.90;99.90;;;;;;5063878;28;20461;-73
2021/05/16 00:52:51;;;;;;;3.17;1.83;;;10.90;99.90;;;;;;5080068;28;21023;-73
2021/05/16 00:55:19;;;;;;;3.60;3.20;;;10.90;99.90;;;;;;5050131;28;20434;-73
2021/05/16 00:57:46;;;;;;;2.30;2.10;;;10.90;99.90;;;;;;5047388;28;20299;-73
2021/05/16 01:00:16;;;;;;;4.23;2.20;;;10.90;99.90;;;;;;5065123;28;21049;-71
2021/05/16 01:02:42;;;;;;;2.73;2.30;;;10.90;99.90;;;;;;5064392;28;20493;-73
2021/05/16 01:05:10;;;;;;;4.30;2.50;;;10.90;99.90;;;;;;5081008;28;20493;-73
2021/05/16 01:07:38;;;;;;;3.83;2.40;;;10.80;99.90;;;;;;5062959;28;20467;-73
2021/05/16 01:10:07;;;;;;;3.17;2.57;;;10.70;99.90;;;;;;5045605;28;20842;-73
2021/05/16 01:12:40;;;;;;;2.33;2.10;;;10.70;99.90;;;;;;5064927;28;20460;-72
2021/05/16 01:15:09;;;;;;;2.87;1.80;;;10.70;99.90;;;;;;5049770;28;20453;-73
2021/05/16 01:17:36;;;;;;;2.47;2.23;;;10.70;99.90;;;;;;5017640;28;20461;-70
2021/05/16 01:20:04;;;;;;;2.90;2.40;;;10.60;99.90;;;;;;5035600;28;20485;-72
2021/05/16 01:22:32;;;;;;;2.83;2.23;;;10.50;99.90;;;;;;5035289;28;20469;-73
2021/05/16 01:24:59;;;;;;;3.40;2.37;;;10.50;99.90;;;;;;5036577;28;20454;-73
2021/05/16 01:27:25;;;;;;;2.77;2.00;;;10.40;99.90;;;;;;5064514;28;20457;-72
2021/05/16 01:29:52;;;;;;;2.30;1.93;;;10.30;99.90;;;;;;5046751;28;20500;-72
2021/05/16 01:32:21;;;;;;;2.17;1.63;;;10.30;99.90;;;;;;5062581;28;20437;-73
2021/05/16 01:34:47;;;;;;;3.37;2.13;;;10.30;99.90;;;;;;5021864;28;20485;-73
2021/05/16 01:37:17;;;;;;;2.33;2.13;;;10.20;99.90;;;;;;5047665;28;20458;-72
2021/05/16 01:39:47;;;;;;;2.87;2.00;;;10.20;99.90;;;;;;5062834;28;20537;-73
2021/05/16 01:42:13;;;;;;;3.40;2.40;;;10.30;99.90;;;;;;5037355;28;20469;-73
2021/05/16 01:44:39;;;;;;;3.27;2.43;;;10.30;99.90;;;;;;5054546;28;20825;-73
2021/05/16 01:47:05;;;;;;;4.97;2.63;;;10.20;99.90;;;;;;5037648;28;20454;-73
2021/05/16 01:49:48;;;;;;;3.93;2.80;;;10.20;99.90;;;;;;5038197;28;20231;-74
2021/05/16 01:52:14;;;;;;;2.90;2.50;;;10.20;99.90;;;;;;5061981;28;20452;-72
2021/05/16 01:54:40;;;;;;;3.57;2.40;;;10.20;99.90;;;;;;5054410;28;20460;-73
2021/05/16 01:57:08;;;;;;;4.20;2.97;;;10.20;99.90;;;;;;5070154;28;20450;-73
2021/05/16 01:59:35;;;;;;;4.80;3.67;;;10.20;99.90;;;;;;5037346;28;20458;-73
2021/05/16 02:02:03;;;;;;;4.03;2.60;;;10.10;99.90;;;;;;5053883;28;20457;-72
2021/05/16 02:04:31;;;;;;;4.47;2.47;;;10.10;99.90;;;;;;5057671;28;20452;-73
2021/05/16 02:06:58;;;;;;;3.10;2.90;;;10.10;99.90;;;;;;5065137;28;20453;-72
2021/05/16 02:09:28;;;;;;;3.27;2.40;;;10.10;99.90;;;;;;5087626;28;20947;-73
2021/05/16 02:11:56;;;;;;;2.73;2.47;;;10.20;99.90;;;;;;5040981;28;20456;-72
2021/05/16 02:14:26;;;;;;;3.30;2.60;;;10.10;99.90;;;;;;5090604;28;20535;-73
2021/05/16 02:16:54;;;;;;;3.50;2.30;;;10.20;99.90;;;;;;5057393;28;20445;-73
2021/05/16 02:19:20;;;;;;;3.20;2.53;;;10.20;99.90;;;;;;5056277;28;20490;-72
2021/05/16 02:21:47;;;;;;;3.93;2.87;;;10.20;99.90;;;;;;5078051;28;20481;-73
2021/05/16 02:24:13;;;;;;;2.60;2.40;;;10.20;99.90;;;;;;5036625;28;20446;-72
2021/05/16 02:27:00;;;;;;;3.10;1.93;;;10.20;99.90;;;;;;5031386;28;20489;-72
2021/05/16 02:29:31;;;;;;;4.40;2.60;;;10.20;99.90;;;;;;5053870;28;20442;-73
2021/05/16 02:31:58;;;;;;;3.50;2.40;;;10.30;99.90;;;;;;5053322;28;20453;-73
2021/05/16 02:34:24;;;;;;;2.53;2.30;;;10.30;99.90;;;;;;5053663;28;20787;-73
2021/05/16 02:36:52;;;;;;;3.57;2.40;;;10.30;99.90;;;;;;5077273;28;20449;-73
2021/05/16 02:39:19;;;;;;;2.07;1.90;;;10.40;99.90;;;;;;5064272;28;20943;-73
2021/05/16 02:41:45;;;;;;;1.97;1.80;;;10.40;99.90;;;;;;5052716;28;20441;-73
2021/05/16 02:44:11;;;;;;;2.17;2.00;;;10.40;99.90;;;;;;5048098;28;20460;-73
2021/05/16 02:46:39;;;;;;;4.97;2.50;;;10.40;99.90;;;;;;5072421;28;20301;-73
2021/05/16 02:49:05;;;;;;;2.53;2.33;;;10.30;99.90;;;;;;5031232;28;20654;-73
2021/05/16 02:51:31;;;;;;;2.93;2.63;;;10.30;99.90;;;;;;5053008;28;20828;-73
2021/05/16 02:53:57;;;;;;;6.47;2.83;;;10.30;99.90;;;;;;5035929;28;20469;-74
2021/05/16 02:56:23;;;;;;;3.60;2.97;;;10.30;99.90;;;;;;5036146;28;20219;-73
2021/05/16 02:58:49;;;;;;;2.40;2.20;;;10.30;99.90;;;;;;5036475;28;20682;-71
2021/05/16 03:01:15;;;;;;;4.30;2.20;;;10.30;99.90;;;;;;5068656;28;20828;-73
2021/05/16 03:03:46;;;;;;;3.30;3.00;;;10.30;99.90;;;;;;5036428;28;20461;-74
2021/05/16 03:06:13;;;;;;;3.23;2.50;;;10.30;99.90;;;;;;5062137;28;20945;-73
2021/05/16 03:08:39;;;;;;;4.97;2.50;;;10.20;99.90;;;;;;5052536;28;20457;-72
2021/05/16 03:11:06;;;;;;;2.87;2.40;;;10.20;99.90;;;;;;5067816;28;20989;-73
2021/05/16 03:13:31;;;;;;;5.60;2.50;;;10.30;99.90;;;;;;5055762;28;20449;-73
2021/05/16 03:16:01;;;;;;;5.63;2.57;;;10.30;99.90;;;;;;5040245;28;20218;-72
2021/05/16 03:18:29;;;;;;;4.10;2.80;;;10.30;99.90;;;;;;5056551;28;20448;-70
2021/05/16 03:20:55;;;;;;;2.97;2.30;;;10.30;99.90;;;;;;5039049;28;20514;-73
2021/05/16 03:23:21;;;;;;;4.23;2.63;;;10.30;99.90;;;;;;5055499;28;20234;-73
2021/05/16 03:25:48;;;;;;;3.07;2.00;;;10.40;99.90;;;;;;5070410;28;20325;-72
2021/05/16 03:28:14;;;;;;;2.60;2.23;;;10.30;99.90;;;;;;5035677;28;20513;-73
2021/05/16 03:30:40;;;;;;;3.27;2.93;;;10.40;99.90;;;;;;5043279;28;20458;-73
2021/05/16 03:33:06;;;;;;;5.23;2.50;;;10.30;99.90;;;;;;5069582;28;20309;-72
2021/05/16 03:35:32;;;;;;;4.90;2.17;;;10.30;99.90;;;;;;5072656;28;20528;-72
2021/05/16 03:37:58;;;;;;;4.57;2.80;;;10.30;99.90;;;;;;5070286;28;20214;-72
2021/05/16 03:40:24;;;;;;;2.53;2.00;;;10.30;99.90;;;;;;5054077;28;20215;-73
2021/05/16 03:42:50;;;;;;;2.37;2.17;;;10.30;99.90;;;;;;5040128;28;20477;-73
2021/05/16 03:45:15;;;;;;;2.47;2.27;;;10.40;99.90;;;;;;5078338;28;20215;-73
2021/05/16 03:47:41;;;;;;;2.20;2.00;;;10.40;99.90;;;;;;5055903;28;20493;-73
2021/05/16 03:50:09;;;;;;;2.23;2.00;;;10.40;99.90;;;;;;5054227;28;20297;-72
2021/05/16 03:52:35;;;;;;;5.80;2.27;;;10.40;99.90;;;;;;5082159;28;20222;-72
2021/05/16 03:55:01;;;;;;;1.70;1.60;;;10.50;99.90;;;;;;5074131;28;20515;-72
2021/05/16 03:57:27;;;;;;;3.00;2.43;;;10.40;99.90;;;;;;5023267;28;20871;-73
2021/05/16 03:59:53;;;;;;;4.40;2.40;;;10.50;99.90;;;;;;5056011;28;20234;-73
2021/05/16 04:02:18;;;;;;;2.53;2.30;;;10.50;99.90;;;;;;5046419;28;20232;-73
2021/05/16 04:04:44;;;;;;;3.23;1.90;;;10.50;99.90;;;;;;5037129;28;20226;-73
2021/05/16 04:07:10;;;;;;;2.80;2.13;;;10.50;99.90;;;;;;5050800;28;20232;-73
2021/05/16 04:09:36;;;;;;;2.40;2.10;;;10.50;99.90;;;;;;5085794;28;20522;-73
2021/05/16 04:12:02;;;;;;;4.50;1.90;;;10.50;99.90;;;;;;5070346;28;20853;-73
2021/05/16 04:14:28;;;;;;;3.33;1.60;;;10.60;99.90;;;;;;5068205;28;20229;-72
2021/05/16 04:16:54;;;;;;;6.07;1.80;;;10.60;99.90;;;;;;5041505;28;20303;-73
2021/05/16 04:19:20;;;;;;;2.40;2.20;;;10.60;99.90;;;;;;5038642;28;20450;-73
2021/05/16 04:21:46;;;;;;;4.57;2.17;;;10.60;99.90;;;;;;5055693;28;20453;-73
2021/05/16 04:24:12;;;;;;;1.80;1.70;;;10.60;99.90;;;;;;5038296;28;20226;-72
2021/05/16 04:26:38;;;;;;;1.50;1.40;;;10.60;99.90;;;;;;5039124;28;20268;-73
2021/05/16 04:29:04;;;;;;;3.23;2.33;;;10.70;99.90;;;;;;5046495;28;20453;-73
2021/05/16 04:31:31;;;;;;;1.87;1.77;;;10.60;99.90;;;;;;5057087;28;20690;-72
2021/05/16 04:33:56;;;;;;;2.27;2.07;;;10.70;99.90;;;;;;5038755;28;20453;-73
2021/05/16 04:36:22;;;;;;;3.10;2.33;;;10.60;99.90;;;;;;5040966;28;20539;-73
2021/05/16 04:38:48;;;;;;;4.70;1.70;;;10.70;99.90;;;;;;5067352;28;20210;-70
2021/05/16 04:41:15;;;;;;;3.30;2.70;;;10.70;99.90;;;;;;5042628;28;20216;-72
2021/05/16 04:43:41;;;;;;;3.47;2.20;;;10.70;99.90;;;;;;5083991;28;20231;-73
2021/05/16 04:46:07;;;;;;;3.13;2.90;;;10.70;99.90;;;;;;5074910;28;20453;-73
2021/05/16 04:48:33;;;;;;;2.30;2.03;;;10.70;99.90;;;;;;5057836;28;20523;-73
2021/05/16 04:50:59;;;;;;;3.30;2.40;;;10.70;99.90;;;;;;5070329;28;21048;-73
2021/05/16 04:53:28;;;;;;;2.50;2.30;;;10.70;99.90;;;;;;5038215;28;20611;-73
2021/05/16 04:55:53;;;;;;;2.50;1.80;;;10.70;99.90;;;;;;5055473;28;20215;-73
2021/05/16 04:58:19;;;;;;;2.83;2.20;;;10.70;99.90;;;;;;5054468;28;20453;-73
2021/05/16 05:00:45;;;;;;;3.00;2.77;;;10.70;99.90;;;;;;5050532;28;20218;-73
2021/05/16 05:03:11;;;;;;;2.43;2.23;;;10.70;99.90;;;;;;5046758;28;20453;-72
2021/05/16 05:05:37;;;;;;;2.57;2.23;;;10.60;99.90;;;;;;5053069;28;20658;-73
2021/05/16 05:08:02;;;;;;;2.63;2.43;;;10.70;99.90;;;;;;5062965;28;20219;-74
2021/05/16 05:10:28;;;;;;;2.37;2.17;;;10.70;99.90;;;;;;5091295;28;20337;-72
2021/05/16 05:12:54;;;;;;;3.07;1.90;;;10.80;99.90;;;;;;5070113;28;20226;-73
2021/05/16 05:15:19;;;;;;;1.90;1.63;;;10.80;99.90;;;;;;5055793;28;20313;-73
2021/05/16 05:17:45;;;;;;;1.93;1.83;;;10.80;99.90;;;;;;5038387;28;20222;-72
2021/05/16 05:20:11;;;;;;;1.73;1.50;;;10.80;99.90;;;;;;5045020;28;20210;-73
2021/05/16 05:22:37;;;;;;;2.80;2.10;;;10.80;99.90;;;;;;5060812;28;20725;-73
2021/05/16 05:25:06;;;;;;;1.83;1.73;;;10.80;99.90;;;;;;5021787;28;20815;-74
2021/05/16 05:27:31;;;;;;;1.83;1.73;;;10.90;99.90;;;;;;5087123;28;21116;-73
2021/05/16 05:29:57;;;;;;;3.40;1.70;;;10.90;99.90;;;;;;5002719;28;20544;-73
2021/05/16 05:32:23;;;;;;;2.00;1.80;;;10.90;99.90;;;;;;5035537;28;20292;-73
2021/05/16 05:34:48;;;;;;;2.10;1.97;;;10.90;99.90;;;;;;5052365;28;20245;-73
2021/05/16 05:37:14;;;;;;;2.40;2.20;;;10.90;99.90;;;;;;5075652;28;20693;-74
2021/05/16 05:39:40;;;;;;;2.13;1.93;;;10.90;99.90;;;;;;5037510;28;20243;-74
2021/05/16 05:42:05;;;;;;;1.97;1.77;;;11.00;99.90;;;;;;5053386;28;20782;-74
2021/05/16 05:44:31;;;;;;;3.17;2.07;;;11.00;99.90;;;;;;5065792;28;20206;-73
2021/05/16 05:46:57;;;;;;;2.00;1.50;;;11.10;99.90;;;;;;5090844;28;20638;-73
2021/05/16 05:49:23;;;;;;;2.30;1.40;;;11.10;99.90;;;;;;5059068;28;20263;-73
2021/05/16 05:51:49;;;;;;;3.00;2.00;;;11.10;99.90;;;;;;5070822;28;20457;-73
2021/05/16 05:54:15;;;;;;;5.33;1.93;;;11.10;99.90;;;;;;5055775;28;20754;-73
2021/05/16 05:56:41;;;;;;;2.80;2.00;;;11.10;99.90;;;;;;5074274;28;20233;-73
2021/05/16 05:59:07;;;;;;;1.93;1.60;;;11.20;99.90;;;;;;5050117;28;20742;-73
2021/05/16 06:01:32;;;;;;;2.47;2.27;;;11.20;99.90;;;;;;5040547;28;20241;-73
2021/05/16 06:03:58;;;;;;;2.70;1.90;;;11.20;99.90;;;;;;5047913;28;20486;-73
2021/05/16 06:06:24;;;;;;;2.83;2.10;;;11.20;99.90;;;;;;5004392;28;20222;-73
2021/05/16 06:08:49;;;;;;;3.30;1.50;;;11.30;99.90;;;;;;5045233;28;20225;-73
2021/05/16 06:11:15;;;;;;;2.60;1.60;;;11.30;99.90;;;;;;5036863;28;20243;-73
2021/05/16 06:13:40;;;;;;;4.40;1.50;;;11.30;99.90;;;;;;5037517;28;20219;-73
2021/05/16 06:16:06;;;;;;;2.10;1.90;;;11.40;99.90;;;;;;5043428;28;20219;-73
2021/05/16 06:18:33;;;;;;;1.87;1.40;;;11.40;99.90;;;;;;5083079;28;20241;-73
2021/05/16 06:20:58;;;;;;;2.13;1.93;;;11.40;99.90;;;;;;5062122;28;20703;-73
2021/05/16 06:23:33;;;;;;;1.87;1.77;;;11.40;99.90;;;;;;5084117;28;20553;-73
2021/05/16 06:25:58;;;;;;;2.30;1.57;;;11.40;99.90;;;;;;5052331;28;20302;-73
2021/05/16 06:28:24;;;;;;;1.70;1.60;;;11.50;99.90;;;;;;5035498;28;20557;-73
2021/05/16 06:30:50;;;;;;;1.40;1.30;;;11.50;99.90;;;;;;5060700;28;20709;-73
2021/05/16 06:33:15;;;;;;;1.70;1.60;;;11.50;99.90;;;;;;5011902;28;20231;-73
2021/05/16 06:35:41;;;;;;;1.53;1.43;;;11.60;99.90;;;;;;5033767;28;20223;-73
2021/05/16 06:38:06;;;;;;;2.13;1.63;;;11.60;99.90;;;;;;5038077;28;20220;-71
2021/05/16 06:40:34;;;;;;;1.60;1.50;;;11.60;99.90;;;;;;5064530;28;20295;-71
2021/05/16 06:43:02;;;;;;;1.00;1.00;;;11.60;99.90;;;;;;5090061;28;20231;-71
2021/05/16 06:45:28;;;;;;;1.87;1.43;;;11.60;99.90;;;;;;5073199;28;20453;-71
2021/05/16 06:47:53;;;;;;;1.77;1.67;;;11.60;99.90;;;;;;5076068;28;20839;-71
2021/05/16 06:50:19;;;;;;;1.27;1.17;;;11.60;99.90;;;;;;5036785;28;20700;-72
2021/05/16 06:52:45;;;;;;;2.07;1.10;;;11.60;99.90;;;;;;5020142;28;20223;-72
2021/05/16 06:55:11;;;;;;;6.10;1.70;;;11.70;99.90;;;;;;5077266;28;20285;-72
2021/05/16 06:57:39;;;;;;;1.00;0.93;;;11.70;99.90;;;;;;5070440;28;20337;-72
2021/05/16 07:00:05;;;;;;;1.23;1.13;;;11.70;99.90;;;;;;5035821;28;20466;-71
2021/05/16 07:02:31;;;;;;;1.33;1.23;;;11.80;99.90;;;;;;5034943;28;20481;-71
2021/05/16 07:04:57;;;;;;;1.00;0.90;;;11.80;99.90;;;;;;5035846;28;20469;-71
2021/05/16 07:07:23;;;;;;;5.00;1.30;;;11.80;99.90;;;;;;5039672;28;20213;-72
2021/05/16 07:09:49;;;;;;;1.10;1.00;;;11.80;99.90;;;;;;5037982;28;20231;-72
2021/05/16 07:12:15;;;;;;;3.07;1.30;;;11.80;99.90;;;;;;5052430;28;20545;-71
2021/05/16 07:14:41;;;;;;;1.07;0.97;;;11.90;99.90;;;;;;5052245;28;20370;-71
2021/05/16 07:17:06;;;;;;;0.83;0.80;;;12.00;99.90;;;;;;5056980;28;21119;-72
2021/05/16 07:19:33;;;;;;;0.83;0.83;;;12.00;99.90;;;;;;5071636;28;20249;-72
2021/05/16 07:21:59;;;;;;;0.90;0.90;;;12.10;99.90;;;;;;5051763;28;20219;-71
2021/05/16 07:24:24;;;;;;;1.73;1.20;;;12.10;99.90;;;;;;5080689;28;20452;-72
2021/05/16 07:26:50;;;;;;;1.97;1.13;;;12.10;99.90;;;;;;5043580;28;20220;-73
2021/05/16 07:29:16;;;;;;;3.27;1.60;;;12.20;99.90;;;;;;5043505;28;20272;-71
2021/05/16 07:31:42;;;;;;;3.47;1.63;;;12.20;99.90;;;;;;5064604;28;20276;-71
2021/05/16 07:34:08;;;;;;;1.40;1.20;;;12.30;99.90;;;;;;5001814;28;20787;-72
2021/05/16 07:36:33;;;;;;;1.40;1.23;;;12.30;99.90;;;;;;5039356;28;20237;-71
2021/05/16 07:39:00;;;;;;;1.70;1.60;;;12.40;99.90;;;;;;5079085;28;20247;-72
2021/05/16 07:41:26;;;;;;;2.30;1.40;;;12.40;99.90;;;;;;5051706;28;20226;-71
2021/05/16 07:43:51;;;;;;;1.37;1.27;;;12.50;99.90;;;;;;5068061;28;20827;-71
2021/05/16 07:46:17;;;;;;;1.40;1.30;;;12.50;99.90;;;;;;5051439;28;20695;-72
2021/05/16 07:48:42;;;;;;;6.10;1.53;;;12.60;99.90;;;;;;5051687;28;20230;-73
2021/05/16 07:51:08;;;;;;;2.90;1.80;;;12.60;99.90;;;;;;5018413;28;20223;-73
2021/05/16 07:53:35;;;;;;;2.67;2.17;;;12.60;99.90;;;;;;5053844;28;20736;-73
2021/05/16 07:56:03;;;;;;;1.73;1.63;;;12.70;99.90;;;;;;5076380;28;20630;-72
2021/05/16 07:58:29;;;;;;;4.53;1.97;;;12.80;99.90;;;;;;5052327;28;20511;-72
2021/05/16 08:00:54;;;;;;;4.60;1.57;;;12.90;99.90;;;;;;5032250;28;20478;-73
2021/05/16 08:03:20;;;;;;;2.23;1.83;;;13.00;99.90;;;;;;5029293;28;20224;-73
2021/05/16 08:05:46;;;;;;;2.23;1.67;;;13.10;99.90;;;;;;5033330;28;20218;-73
2021/05/16 08:08:11;;;;;;;6.37;1.80;;;13.10;99.90;;;;;;5059978;28;20277;-73
2021/05/16 08:10:37;;;;;;;2.80;1.23;;;13.20;99.90;;;;;;5045341;28;20269;-72
2021/05/16 08:13:16;;;;;;;1.40;1.30;;;13.20;99.90;;;;;;5043854;28;20220;-73
2021/05/16 08:15:42;;;;;;;5.40;1.50;;;13.20;99.90;;;;;;5048320;28;20211;-72
2021/05/16 08:18:09;;;;;;;1.80;1.70;;;13.20;99.90;;;;;;5041245;28;20497;-72
2021/05/16 08:20:35;;;;;;;3.50;1.20;;;13.20;99.90;;;;;;5081513;28;20219;-73
2021/05/16 08:23:01;;;;;;;1.60;1.37;;;13.20;99.90;;;;;;5052944;28;20461;-73
2021/05/16 08:25:27;;;;;;;2.53;1.30;;;13.20;99.90;;;;;;5029275;28;20960;-74
2021/05/16 08:27:53;;;;;;;1.50;1.40;;;13.20;99.90;;;;;;5045411;28;20458;-73
2021/05/16 08:30:20;;;;;;;1.67;1.47;;;13.20;99.90;;;;;;5060776;28;20445;-74
2021/05/16 08:32:45;;;;;;;2.10;1.50;;;13.30;99.90;;;;;;5025363;28;20228;-74
2021/05/16 08:35:11;;;;;;;3.10;1.60;;;13.30;99.90;;;;;;5042810;28;20496;-74
2021/05/16 08:37:37;;;;;;;1.73;1.30;;;13.30;99.90;;;;;;5059832;28;20691;-74
2021/05/16 08:40:05;;;;;;;2.97;1.50;;;13.40;99.90;;;;;;5017307;28;20454;-72
2021/05/16 08:42:31;;;;;;;4.13;1.40;;;13.40;99.90;;;;;;5035612;28;20224;-74
2021/05/16 08:44:57;;;;;;;4.70;1.37;;;13.50;99.90;;;;;;5036541;28;20465;-74
2021/05/16 08:47:23;;;;;;;2.57;1.63;;;13.60;99.90;;;;;;5082843;28;20444;-73
2021/05/16 08:49:49;;;;;;;3.70;2.03;;;13.60;99.90;;;;;;5046728;28;20215;-73
2021/05/16 08:52:15;;;;;;;4.93;2.13;;;13.70;99.90;;;;;;5054460;28;20448;-74
2021/05/16 08:54:41;;;;;;;2.50;1.50;;;13.80;99.90;;;;;;5055265;28;20820;-73
2021/05/16 08:57:07;;;;;;;1.30;1.20;;;13.80;99.90;;;;;;5071352;28;20233;-73
2021/05/16 08:59:33;;;;;;;2.90;1.87;;;13.80;99.90;;;;;;5070995;28;20448;-73
2021/05/16 09:02:00;;;;;;;2.43;1.60;;;13.80;99.90;;;;;;5043736;28;20219;-74
2021/05/16 09:04:36;;;;;;;2.40;1.53;;;13.80;99.90;;;;;;5072121;28;20239;-74
2021/05/16 09:07:04;;;;;;;1.63;1.17;;;13.80;99.90;;;;;;5070152;28;20440;-74
2021/05/16 09:09:36;;;;;;;1.07;1.07;;;13.90;99.90;;;;;;5071433;28;20452;-73
2021/05/16 09:12:08;;;;;;;3.10;1.30;;;14.00;99.90;;;;;;5084000;28;20449;-73
2021/05/16 09:14:52;;;;;;;1.53;1.43;;;14.00;99.90;;;;;;5053178;28;20444;-73
2021/05/16 09:17:34;;;;;;;1.07;1.07;;;13.90;99.90;;;;;;5040996;28;20579;-73
2021/05/16 09:20:11;;;;;;;1.43;1.00;;;14.00;99.90;;;;;;5057473;28;20459;-73
2021/05/16 09:22:36;;;;;;;1.20;1.10;;;14.10;99.90;;;;;;5090884;28;20468;-73
2021/05/16 09:25:05;;;;;;;1.40;1.30;;;14.20;99.90;;;;;;5050850;28;20460;-73
2021/05/16 09:27:33;;;;;;;1.07;0.80;;;14.20;99.90;;;;;;5055261;28;20242;-73
2021/05/16 09:29:59;;;;;;;1.87;1.20;;;14.30;99.90;;;;;;5036217;28;20478;-73
2021/05/16 09:32:27;;;;;;;1.00;1.00;;;14.30;99.90;;;;;;5073375;28;20492;-73
2021/05/16 09:34:54;;;;;;;1.73;1.63;;;14.40;99.90;;;;;;5042845;28;20220;-73
2021/05/16 09:37:21;;;;;;;0.80;0.80;;;14.50;99.90;;;;;;5050478;28;20517;-69
2021/05/16 09:39:47;;;;;;;1.70;1.17;;;14.60;99.90;;;;;;5072298;28;20549;-70
2021/05/16 09:42:14;;;;;;;2.00;0.97;;;14.70;99.90;;;;;;5020794;28;20596;-70
2021/05/16 09:44:45;;;;;;;1.07;1.00;;;14.80;99.90;;;;;;5082861;28;20219;-68
2021/05/16 09:47:15;;;;;;;0.90;0.73;;;14.90;99.90;;;;;;5067037;28;20449;-70
2021/05/16 09:49:43;;;;;;;3.33;1.20;;;14.90;99.90;;;;;;5048492;28;20524;-70
2021/05/16 09:52:23;;;;;;;1.60;1.47;;;15.00;99.90;;;;;;5056673;28;20460;-69
2021/05/16 09:54:53;;;;;;;1.03;0.93;;;15.10;99.90;;;;;;5063625;28;20453;-69
2021/05/16 09:57:19;;;;;;;1.23;0.70;;;15.20;99.90;;;;;;5068118;28;20449;-68
2021/05/16 09:59:46;;;;;;;1.20;1.10;;;15.30;99.90;;;;;;5052465;28;20784;-68
2021/05/16 10:02:15;;;;;;;1.40;1.30;;;15.40;99.90;;;;;;5047812;28;20452;-68
2021/05/16 10:04:41;;;;;;;5.33;1.70;;;15.60;99.90;;;;;;5070664;28;20505;-68
2021/05/16 10:07:08;;;;;;;1.43;1.17;;;15.70;99.90;;;;;;5055619;28;20460;-68
2021/05/16 10:09:33;;;;;;;2.40;1.57;;;15.90;99.90;;;;;;5040159;28;20479;-68
2021/05/16 10:12:02;;;;;;;1.40;1.30;;;16.10;99.90;;;;;;5064256;28;20479;-70
2021/05/16 10:14:30;;;;;;;4.33;1.73;;;16.30;99.90;;;;;;5073099;28;20612;-69
2021/05/16 10:16:59;;;;;;;1.90;1.40;;;16.30;99.90;;;;;;5010625;28;20614;-69
2021/05/16 10:19:30;;;;;;;2.90;1.23;;;16.40;99.90;;;;;;5069500;28;20445;-68
2021/05/16 10:22:09;;;;;;;1.37;1.27;;;16.50;99.90;;;;;;5070573;28;20453;-68
2021/05/16 10:24:39;;;;;;;1.63;1.50;;;16.50;99.90;;;;;;5035788;28;20457;-69
2021/05/16 10:27:25;;;;;;;4.70;1.40;;;16.60;99.90;;;;;;5055995;28;20473;-68
2021/05/16 10:29:57;;;;;;;1.93;1.73;;;16.80;99.90;;;;;;5055552;28;20460;-69
2021/05/16 10:32:35;;;;;;;1.50;1.00;;;16.90;99.90;;;;;;5089846;28;20448;-69
2021/05/16 10:35:03;;;;;;;0.83;0.83;;;17.00;99.90;;;;;;5074633;28;20813;-68
2021/05/16 10:37:41;;;;;;;1.40;1.13;;;17.00;99.90;;;;;;5039443;28;20452;-69
2021/05/16 10:40:28;;;;;;;1.70;1.60;;;17.10;99.90;;;;;;5055111;28;20457;-68
2021/05/16 10:43:01;;;;;;;1.13;0.90;;;17.20;99.90;;;;;;5035488;28;20470;-71
2021/05/16 10:45:38;;;;;;;1.57;1.00;;;17.30;99.90;;;;;;5050971;28;20445;-68
2021/05/16 10:48:28;;;;;;;1.20;1.10;;;17.30;99.90;;;;;;5057885;28;20969;-69
2021/05/16 10:50:57;;;;;;;1.93;1.10;;;17.40;99.90;;;;;;5047786;28;20493;-71
2021/05/16 10:53:54;;;;;;;2.50;0.97;;;17.40;99.90;;;;;;5051330;28;20489;-69
2021/05/16 10:56:21;;;;;;;0.90;0.90;;;17.50;99.90;;;;;;5051077;28;20446;-69
2021/05/16 10:58:52;;;;;;;3.30;1.07;;;17.60;99.90;;;;;;5071199;28;20464;-69
2021/05/16 11:01:31;;;;;;;1.00;1.00;;;17.70;99.90;;;;;;5059281;28;20452;-69
2021/05/16 11:04:00;;;;;;;2.53;2.00;;;17.80;99.90;;;;;;5067760;28;20670;-69
2021/05/16 11:06:37;;;;;;;3.77;1.40;;;17.90;99.90;;;;;;5069290;28;20976;-69
2021/05/16 11:09:04;;;;;;;2.43;1.10;;;17.90;99.90;;;;;;5037579;28;20457;-69
2021/05/16 11:11:34;;;;;;;1.10;1.00;;;18.00;99.90;;;;;;5042264;28;20532;-69
2021/05/16 11:14:01;;;;;;;5.80;1.30;;;18.10;99.90;;;;;;5048049;28;20454;-70
2021/05/16 11:16:27;;;;;;;2.03;1.23;;;18.20;99.90;;;;;;5048922;28;20447;-70
2021/05/16 11:18:53;;;;;;;1.27;1.17;;;18.30;99.90;;;;;;5051310;28;20968;-69
2021/05/16 11:21:20;;;;;;;1.87;1.30;;;18.40;99.90;;;;;;5061832;28;20254;-69
2021/05/16 11:23:48;;;;;;;1.53;1.40;;;18.50;99.90;;;;;;5070395;28;20234;-69
2021/05/16 11:26:19;;;;;;;2.93;1.87;;;18.60;99.90;;;;;;5034228;28;20462;-69
2021/05/16 11:28:51;;;;;;;1.20;1.10;;;18.70;99.90;;;;;;5034609;28;20465;-70
2021/05/16 11:31:20;;;;;;;2.33;2.23;;;18.70;99.90;;;;;;5068815;28;20453;-69
2021/05/16 11:33:51;;;;;;;2.13;1.07;;;18.80;99.90;;;;;;5051670;28;20461;-68
2021/05/16 11:36:20;;;;;;;1.57;1.27;;;19.00;99.90;;;;;;5053839;28;20464;-69
2021/05/16 11:38:47;;;;;;;2.10;1.27;;;19.10;99.90;;;;;;5053586;28;20454;-69
2021/05/16 11:41:27;;;;;;;1.90;1.60;;;19.00;99.90;;;;;;5034992;28;20476;-69
2021/05/16 11:43:52;;;;;;;4.40;1.43;;;19.20;99.90;;;;;;5043788;28;20483;-69
2021/05/16 11:46:46;;;;;;;1.73;1.20;;;19.20;99.90;;;;;;5076660;28;20950;-70
2021/05/16 11:49:23;;;;;;;1.70;1.33;;;19.30;99.90;;;;;;5034753;28;20245;-70
2021/05/16 11:51:49;;;;;;;1.77;1.00;;;19.30;99.90;;;;;;5068069;28;20506;-69
2021/05/16 11:54:15;;;;;;;1.50;1.07;;;19.20;99.90;;;;;;5034697;28;20465;-70
2021/05/16 11:56:47;;;;;;;1.90;1.10;;;19.10;99.90;;;;;;5018437;28;20230;-70
2021/05/16 11:59:13;;;;;;;1.47;1.20;;;19.00;99.90;;;;;;5058771;28;20461;-69
2021/05/16 12:01:43;;;;;;;2.77;1.67;;;19.00;99.90;;;;;;5054002;28;20465;-69
2021/05/16 12:04:17;;;;;;;1.93;1.37;;;19.00;99.90;;;;;;5018587;28;20515;-70
2021/05/16 12:06:51;;;;;;;6.23;1.50;;;19.00;99.90;;;;;;5037266;28;20544;-70
2021/05/16 12:09:22;;;;;;;3.13;1.60;;;19.00;99.90;;;;;;5064622;28;20452;-69
2021/05/16 12:11:50;;;;;;;2.77;2.30;;;18.90;99.90;;;;;;5042161;28;20469;-68
2021/05/16 12:14:24;;;;;;;1.30;1.20;;;18.80;99.90;;;;;;5071322;28;20462;-69
2021/05/16 12:16:57;;;;;;;1.40;0.90;;;18.70;99.90;;;;;;5059285;28;20461;-68
2021/05/16 12:19:31;;;;;;;0.80;0.73;;;18.60;99.90;;;;;;5073115;28;20460;-69
2021/05/16 12:22:08;;;;;;;2.30;1.10;;;18.50;99.90;;;;;;5054356;28;20484;-69
2021/05/16 12:24:36;;;;;;;0.90;0.80;;;18.40;99.90;;;;;;5034981;28;20457;-71
2021/05/16 12:27:04;;;;;;;1.10;1.00;;;18.40;99.90;;;;;;5063039;28;20457;-69
2021/05/16 12:29:30;;;;;;;2.73;1.30;;;18.40;99.90;;;;;;5066352;28;20456;-69
2021/05/16 12:32:12;;;;;;;3.80;1.50;;;18.30;99.90;;;;;;5068063;28;20449;-69
2021/05/16 12:34:38;;;;;;;4.13;1.50;;;18.40;99.90;;;;;;5038646;28;20846;-70
2021/05/16 12:37:18;;;;;;;2.37;1.23;;;18.40;99.90;;;;;;5060364;28;20467;-69
2021/05/16 12:39:46;;;;;;;2.03;1.00;;;18.30;99.90;;;;;;5058450;28;20851;-69
2021/05/16 12:42:36;;;;;;;1.67;1.17;;;18.30;99.90;;;;;;5088278;28;20441;-69
2021/05/16 12:45:31;;;;;;;3.40;1.20;;;18.40;99.90;;;;;;5039304;28;20445;-69
2021/05/16 12:48:04;;;;;;;2.50;1.60;;;18.40;99.90;;;;;;5034482;28;20973;-69
2021/05/16 12:50:42;;;;;;;1.30;1.20;;;18.50;99.90;;;;;;5052910;28;20458;-69
2021/05/16 12:53:26;;;;;;;1.90;1.40;;;18.50;99.90;;;;;;5054225;28;20464;-69